Flight Track Log - Related Links

Times and Time Zones

All times are in EDT time to prevent confusion due to time zone crossing. See the ASQ4577 flight status page for this flight to view local times or setup timezone preferences in your user account.


Time Position Orientation Groundspeed Altitude Reporting Facility
EDT Latitude Longitude Course Direction KTS MPH feet Rate Location/Type
Mon 08:56:42 PM 41.4217 -81.8347 73° East 163 188 1,800  Level Cleveland Center
Mon 08:58:21 PM 41.4994 -81.7753 30° Northeast 216 249 4,800 2,075 Climbing Cleveland Center
Mon 08:59:00 PM 41.6771 -81.5729 37° Northeast  Level FlightAware Approximate
Mon 08:59:21 PM 41.5664 -81.7267 29° Northeast 240 276 7,300  Level Cleveland Center
Mon 09:00:00 PM 41.7703 -81.4798 37° Northeast  Level FlightAware Approximate
Mon 09:00:21 PM 41.6336 -81.6750 30° Northeast 259 298 9,700  Level Cleveland Center
Mon 09:01:00 PM 41.8366 -81.3669 75° East  Level FlightAware Approximate
Mon 09:01:21 PM 41.7011 -81.6150 34° Northeast 279 321 11,300  Level Cleveland Center
Mon 09:02:00 PM 41.8581 -81.2150 73° East  Level FlightAware Approximate
Mon 09:02:21 PM 41.7456 -81.5100 60° Northeast 316 364 12,500  Level Cleveland Center
Mon 09:03:21 PM 41.7717 -81.3739 76° East 350 403 13,600 1,100 Climbing Cleveland Center
Mon 09:04:21 PM 41.7956 -81.2264 78° East 390 449 14,700 1,250 Climbing Cleveland Center
Mon 09:05:21 PM 41.8214 -81.0819 76° East 400 460 16,100 1,150 Climbing Cleveland Center
Mon 09:06:21 PM 41.8469 -80.9456 76° East 410 472 17,000 950 Climbing Cleveland Center
Mon 09:07:21 PM 41.8703 -80.7867 79° East 421 484 18,000 1,050 Climbing Cleveland Center
Mon 09:08:21 PM 41.8975 -80.6278 77° East 427 491 19,100 1,100 Climbing Cleveland Center
Mon 09:09:21 PM 41.9286 -80.4631 76° East 444 511 20,200 1,100 Climbing Cleveland Center
Mon 09:10:21 PM 41.9556 -80.2900 78° East 462 532 21,300 1,250 Climbing Cleveland Center
Mon 09:11:21 PM 41.9842 -80.1194 77° East 469 540 22,700 1,400 Climbing Cleveland Center
Mon 09:12:21 PM 42.0125 -79.9517 77° East 469 540 24,100 1,400 Climbing Cleveland Center
Mon 09:13:21 PM 42.0364 -79.7808 79° East 469 540 25,500 1,400 Climbing Cleveland Center
Mon 09:14:21 PM 42.0642 -79.6069 78° East 469 540 26,900 750 Climbing Cleveland Center
Mon 09:15:21 PM 42.0958 -79.4164 77° East 469 540 27,000 50 Climbing Cleveland Center
Mon 09:16:21 PM 42.1211 -79.2422 79° East 469 540 27,000  Level Cleveland Center
Mon 09:17:21 PM 42.1481 -79.0708 78° East 469 540 27,000  Level Cleveland Center
Mon 09:18:21 PM 42.1747 -78.8936 78° East 474 545 27,000  Level Cleveland Center
Mon 09:19:21 PM 42.2053 -78.7078 77° East 484 557 27,000  Level Cleveland Center
Mon 09:20:21 PM 42.2333 -78.5164 79° East 496 571 27,000  Level Cleveland Center
Mon 09:21:21 PM 42.2608 -78.3219 79° East 510 587 27,000  Level Cleveland Center
Mon 09:22:21 PM 42.2881 -78.1272 79° East 516 594 27,000  Level Cleveland Center
Mon 09:23:21 PM 42.3153 -77.9353 79° East 521 600 27,000  Level Cleveland Center
Mon 09:24:20 PM 42.3439 -77.7400 79° East 527 606 27,000  Level Cleveland Center
Mon 09:25:21 PM 42.3703 -77.5450 80° East 527 606 27,000  Level Cleveland Center
Mon 09:26:21 PM 42.3983 -77.3497 79° East 527 606 27,000  Level Cleveland Center
Mon 09:27:21 PM 42.4236 -77.1514 80° East 527 606 27,000  Level Cleveland Center
Mon 09:28:59 PM 42.4606 -76.8536 80° East 541 623 27,000  Level Boston Center
Mon 09:29:59 PM 42.4806 -76.6550 82° East 536 617 27,000  Level Boston Center
Mon 09:30:59 PM 42.5022 -76.4592 81° East 536 617 27,000  Level Boston Center
Mon 09:31:59 PM 42.5222 -76.2408 83° East 531 611 27,000  Level Boston Center
Mon 09:32:59 PM 42.5433 -76.0475 82° East 531 611 27,000  Level Boston Center
Mon 09:33:59 PM 42.5619 -75.8456 83° East 531 611 27,000 -50 Level Boston Center
Mon 09:34:59 PM 42.5822 -75.6492 82° East 531 611 26,900 -1,050 Descending Boston Center
Mon 09:35:59 PM 42.6019 -75.4611 82° East 519 597 24,900 -2,400 Descending Boston Center
Mon 09:36:59 PM 42.6194 -75.2675 83° East 519 597 22,100 -2,700 Descending Boston Center
Mon 09:37:59 PM 42.6361 -75.0958 82° East 495 570 19,500 -2,707 Descending Boston Center
Mon 09:38:21 PM 42.6419 -75.0283 83° East 475 547 18,400 -2,800 Descending Boston Center
Mon 09:38:59 PM 42.6506 -74.9244 84° East 473 544 16,700 -2,571 Descending Boston Center
Mon 09:39:59 PM 42.6639 -74.7781 83° East 454 522 14,200 -2,350 Descending Boston Center
Mon 09:40:59 PM 42.6797 -74.6147 82° East 407 468 12,000 -1,762 Descending Boston Center
Mon 09:42:05 PM 42.6719 -74.4678 94° East 339 390 10,500 -1,200 Descending Boston Center
Mon 09:42:59 PM 42.6550 -74.3656 103° East 325 374 9,600 -1,105 Descending Boston Center
Mon 09:43:59 PM 42.6381 -74.2633 103° East 299 344 8,400 -1,550 Descending Boston Center
Mon 09:44:59 PM 42.6169 -74.1469 104° East 299 344 6,500 -1,750 Descending Boston Center
Mon 09:45:59 PM 42.5994 -74.0450 103° East 294 338 4,900 -1,600 Descending Boston Center
Mon 09:46:14 PM 42.5936 -74.0167 106° East 284 327 4,500 -1,400 Descending Boston Center
Mon 09:46:59 PM 42.5800 -73.9431 104° East 283 326 3,500 -1,377 Descending Boston Center
Mon 09:47:15 PM 42.5764 -73.9175 101° East 264 304 3,100 -700 Descending Boston Center
Mon 09:47:59 PM 42.5856 -73.8528 79° East 251 289 2,800 -600 Descending Boston Center
Mon 09:48:15 PM 42.5919 -73.8333 66° East 222 255 2,500 -1,125 Descending Boston Center

Login

Don't have an account? Register now (free) for customized features, flight alerts, and more!